Time;durP1;ratioP1;P1;durP2;ratioP2;P2;SDS_P1;SDS_P2;PMS_P1;PMS_P2;Temp;Humidity;BMP_temperature;BMP_pressure;BME280_temperature;BME280_humidity;BME280_pressure;Samples;Min_cycle;Max_cycle;Signal;HPM_P1;HPM_P2
2022/01/16 00:04:41;;;;;;;22.35;11.65;;;;;;;4.56;42.01;96013.41;5003728;28;20190;-66
2022/01/16 00:07:08;;;;;;;21.00;10.85;;;;;;;4.94;41.09;95990.44;5009828;28;20204;-67
2022/01/16 00:09:35;;;;;;;20.77;11.45;;;;;;;4.59;41.47;95973.28;5011095;28;20213;-68
2022/01/16 00:12:05;;;;;;;22.20;11.68;;;;;;;4.76;41.69;95983.16;5011490;28;20206;-70
2022/01/16 00:14:33;;;;;;;20.23;11.52;;;;;;;4.65;41.21;95986.28;5011319;28;20221;-69
2022/01/16 00:17:00;;;;;;;18.42;10.35;;;;;;;4.23;41.17;95949.34;5011998;28;20233;-67
2022/01/16 00:19:27;;;;;;;19.58;10.70;;;;;;;4.40;41.13;95994.75;5011170;28;20202;-68
2022/01/16 00:21:57;;;;;;;18.60;10.25;;;;;;;4.10;42.68;96035.66;5011438;28;20213;-66
2022/01/16 00:24:24;;;;;;;21.15;11.13;;;;;;;4.17;42.85;96067.63;5010821;28;20685;-66
2022/01/16 00:26:51;;;;;;;20.35;11.23;;;;;;;4.87;42.25;96081.28;5011173;28;20198;-67
2022/01/16 00:29:18;;;;;;;19.92;11.25;;;;;;;4.86;41.91;96084.09;5010842;28;20205;-66
2022/01/16 00:31:45;;;;;;;24.48;11.48;;;;;;;4.95;41.97;96124.50;5010314;28;20201;-67
2022/01/16 00:34:12;;;;;;;22.73;11.82;;;;;;;4.94;42.39;96069.19;5010741;28;20220;-66
2022/01/16 00:36:39;;;;;;;19.98;11.27;;;;;;;5.07;42.81;96000.91;5010642;28;20190;-67
2022/01/16 00:39:08;;;;;;;22.05;12.25;;;;;;;5.13;42.88;96016.50;5011018;28;20252;-67
2022/01/16 00:41:40;;;;;;;20.55;11.48;;;;;;;5.44;42.27;96064.59;5011035;28;20727;-67
2022/01/16 00:44:10;;;;;;;47.22;23.17;;;;;;;5.55;42.30;95926.22;5010373;28;20321;-66
2022/01/16 00:46:37;;;;;;;22.98;13.07;;;;;;;5.54;42.32;95915.03;5011051;28;20206;-67
2022/01/16 00:49:04;;;;;;;23.55;13.38;;;;;;;5.50;42.90;95965.81;5011115;28;20202;-66
2022/01/16 00:51:31;;;;;;;24.70;12.45;;;;;;;5.29;43.49;95867.25;5010776;28;20197;-67
2022/01/16 00:53:58;;;;;;;19.10;12.18;;;;;;;5.14;43.52;95880.41;5010290;28;20232;-68
2022/01/16 00:56:25;;;;;;;22.65;12.23;;;;;;;4.69;44.87;95903.66;5010603;28;20601;-68
2022/01/16 00:58:52;;;;;;;22.17;12.45;;;;;;;4.56;45.31;95890.63;5010265;28;20198;-68
2022/01/16 01:01:19;;;;;;;21.20;11.85;;;;;;;4.88;45.00;95913.31;5010334;28;20200;-69
2022/01/16 01:03:46;;;;;;;20.08;12.45;;;;;;;4.86;45.16;95962.84;5013914;28;20209;-68
2022/01/16 01:06:14;;;;;;;21.55;12.38;;;;;;;4.33;46.11;95976.53;5009510;28;20198;-69
2022/01/16 01:08:41;;;;;;;22.33;13.10;;;;;;;4.76;45.21;95946.81;5010193;28;20204;-68
2022/01/16 01:11:15;;;;;;;21.67;13.82;;;;;;;4.44;46.75;95950.06;5010143;28;20202;-66
2022/01/16 01:14:41;;;;;;;23.38;13.68;;;;;;;4.82;45.73;95991.97;5009972;28;20214;-68
2022/01/16 01:16:55;;;;;;;20.90;12.65;;;;;;;5.15;45.33;95975.53;5012440;28;20253;-67
2022/01/16 01:19:28;;;;;;;25.52;14.45;;;;;;;5.05;45.47;95951.72;5009084;28;20205;-67
2022/01/16 01:21:56;;;;;;;21.98;13.13;;;;;;;5.14;45.22;95976.53;5009847;28;20242;-66
2022/01/16 01:24:27;;;;;;;44.58;21.02;;;;;;;5.63;43.71;95936.44;5009902;28;20194;-66
2022/01/16 01:27:02;;;;;;;31.00;16.45;;;;;;;5.86;43.33;95965.47;5009921;28;20171;-66
2022/01/16 01:29:30;;;;;;;27.50;15.68;;;;;;;5.86;43.42;95971.47;5009977;28;20227;-65
2022/01/16 01:31:58;;;;;;;27.02;15.23;;;;;;;5.87;43.41;95969.69;5009615;28;20680;-65
2022/01/16 01:34:25;;;;;;;25.95;14.52;;;;;;;5.70;43.57;95956.25;5009493;28;20273;-65
2022/01/16 01:36:52;;;;;;;25.10;14.65;;;;;;;5.64;43.97;95972.63;5009933;28;20190;-68
2022/01/16 01:39:21;;;;;;;24.27;14.48;;;;;;;5.55;44.03;95967.81;5011071;28;20209;-68
2022/01/16 01:41:55;;;;;;;23.08;13.70;;;;;;;5.55;44.05;95994.63;5011626;28;20214;-67
2022/01/16 01:52:38;;;;;;;23.83;14.07;;;;;;;5.24;44.33;96022.91;5009545;28;20288;-67
2022/01/16 01:55:06;;;;;;;23.90;14.25;;;;;;;5.14;44.88;96007.72;5009658;28;20225;-67
2022/01/16 01:57:33;;;;;;;20.13;12.65;;;;;;;5.18;44.73;95999.53;4994493;28;20210;-69
2022/01/16 02:00:04;;;;;;;23.38;14.50;;;;;;;5.40;44.31;96006.19;4997428;28;20202;-68
2022/01/16 02:02:41;;;;;;;24.63;15.05;;;;;;;5.07;45.03;96001.69;5003467;28;20292;-66
2022/01/16 02:05:10;;;;;;;21.60;13.95;;;;;;;4.94;45.19;96014.63;4980163;28;20197;-67
2022/01/16 02:07:37;;;;;;;23.92;14.57;;;;;;;5.07;45.03;96019.84;5009665;28;20202;-67
2022/01/16 02:10:04;;;;;;;25.02;15.20;;;;;;;5.36;44.14;96026.59;5009144;28;20289;-68
2022/01/16 02:12:33;;;;;;;24.23;14.93;;;;;;;5.10;44.35;96042.06;5009167;28;20241;-67
2022/01/16 02:15:18;;;;;;;24.10;15.07;;;;;;;5.16;44.45;96026.50;5008818;28;20689;-67
2022/01/16 02:34:53;;;;;;;46.17;24.73;;;;;;;4.74;44.81;96031.91;5006708;28;20206;-67
2022/01/16 02:37:25;;;;;;;37.17;21.65;;;;;;;5.10;44.04;96011.69;5008435;28;20661;-68
2022/01/16 02:39:53;;;;;;;40.70;22.02;;;;;;;3.96;46.30;96020.94;5008595;28;20221;-67
2022/01/16 02:42:28;;;;;;;38.15;21.30;;;;;;;4.77;45.01;96020.31;5008991;28;20201;-67
2022/01/16 02:45:03;;;;;;;37.40;21.23;;;;;;;4.49;45.61;95997.00;5008200;28;20212;-67
2022/01/16 02:47:31;;;;;;;36.25;20.98;;;;;;;4.57;45.59;96025.41;5008885;28;20212;-68
2022/01/16 02:50:18;;;;;;;38.10;21.70;;;;;;;4.01;45.80;96013.44;5008911;28;20198;-66
2022/01/16 02:52:45;;;;;;;37.13;21.45;;;;;;;3.13;48.56;96019.94;5008557;28;20585;-65
2022/01/16 02:55:14;;;;;;;31.88;19.63;;;;;;;4.08;47.10;96003.91;5008165;28;20325;-66
2022/01/16 02:57:41;;;;;;;37.85;21.13;;;;;;;4.33;45.91;96006.88;5008550;28;20201;-67
2022/01/16 03:00:08;;;;;;;39.90;21.63;;;;;;;4.17;46.49;95997.59;5007264;28;20712;-66
2022/01/16 03:02:36;;;;;;;47.50;26.42;;;;;;;4.40;47.11;96003.31;5008699;28;20205;-66
2022/01/16 03:05:05;;;;;;;53.53;26.80;;;;;;;4.46;47.42;96005.19;5008114;28;20194;-66
2022/01/16 03:07:32;;;;;;;31.77;18.60;;;;;;;4.32;48.97;96008.69;5008553;28;20702;-66
2022/01/16 03:12:56;;;;;;;24.70;15.05;;;;;;;5.15;47.41;95980.72;5008057;28;20205;-67
2022/01/16 03:15:24;;;;;;;24.80;14.98;;;;;;;5.03;47.47;95999.69;5023198;28;20645;-67
2022/01/16 03:23:15;;;;;;;23.10;14.85;;;;;;;4.80;48.78;95997.38;5011444;28;20202;-66
2022/01/16 03:25:42;;;;;;;23.40;14.90;;;;;;;5.06;47.58;95997.50;5011956;28;20194;-66
2022/01/16 03:28:09;;;;;;;21.80;13.57;;;;;;;4.68;48.77;95991.13;5011487;28;20194;-67
2022/01/16 03:30:37;;;;;;;28.80;17.85;;;;;;;4.73;48.65;95999.13;5012105;28;20202;-66
2022/01/16 03:33:04;;;;;;;30.98;19.38;;;;;;;4.77;48.65;96005.56;5011500;28;20197;-66
2022/01/16 03:35:31;;;;;;;35.58;20.38;;;;;;;4.76;48.32;96006.53;5011804;28;20271;-66
2022/01/16 03:37:58;;;;;;;36.50;20.60;;;;;;;4.94;47.60;96004.25;5011838;28;20349;-67
2022/01/16 03:40:25;;;;;;;26.65;15.65;;;;;;;4.71;48.43;95995.94;5012472;28;20194;-66
2022/01/16 03:42:52;;;;;;;36.95;20.40;;;;;;;5.05;47.24;96005.47;5011591;28;20225;-67
2022/01/16 03:45:19;;;;;;;26.10;15.45;;;;;;;4.57;48.87;96014.22;5011488;28;20202;-68
2022/01/16 03:47:46;;;;;;;36.00;21.55;;;;;;;5.10;47.47;96027.28;5011437;28;20260;-66
2022/01/16 03:50:13;;;;;;;42.60;22.60;;;;;;;5.02;47.23;96011.84;5011693;28;20198;-66
2022/01/16 03:52:40;;;;;;;39.28;23.20;;;;;;;4.86;47.14;96017.38;5011481;28;20206;-67
2022/01/16 03:55:07;;;;;;;37.88;22.95;;;;;;;4.89;46.81;96014.38;5011282;28;20616;-67
2022/01/16 03:57:36;;;;;;;37.78;21.65;;;;;;;5.18;46.27;96015.13;5011277;28;20221;-68
2022/01/16 04:00:07;;;;;;;46.15;26.35;;;;;;;5.02;46.68;96024.03;5011119;28;20256;-67
2022/01/16 04:02:34;;;;;;;46.72;27.17;;;;;;;4.79;47.05;96011.34;5011426;28;20224;-68
2022/01/16 04:05:01;;;;;;;53.92;30.05;;;;;;;4.84;46.77;96027.16;5010497;28;20194;-69
2022/01/16 04:07:33;;;;;;;52.17;31.42;;;;;;;4.29;47.63;96027.19;5011442;28;20276;-66
2022/01/16 04:10:00;;;;;;;63.35;35.08;;;;;;;4.64;47.02;96036.63;5011162;28;20202;-68
2022/01/16 04:12:27;;;;;;;70.55;36.88;;;;;;;4.57;47.28;96043.56;5011746;28;20592;-67
2022/01/16 04:17:27;;;;;;;63.08;33.92;;;;;;;4.64;47.11;96036.63;5011167;28;20292;-66
2022/01/16 04:19:54;;;;;;;60.72;33.88;;;;;;;4.51;47.30;96038.31;5010579;28;20206;-67
2022/01/16 04:22:21;;;;;;;58.03;33.55;;;;;;;4.57;47.28;96046.16;5011034;28;20622;-68
2022/01/16 04:24:48;;;;;;;62.60;36.60;;;;;;;4.53;47.24;96052.72;5010477;28;20209;-67
2022/01/16 04:27:16;;;;;;;59.30;34.88;;;;;;;4.71;47.01;96053.03;5011010;28;20697;-67
2022/01/16 04:29:43;;;;;;;58.92;33.50;;;;;;;4.72;46.76;96041.69;5009420;28;20209;-67
2022/01/16 04:32:10;;;;;;;61.10;31.92;;;;;;;4.70;46.76;96050.63;5010690;28;20212;-66
2022/01/16 04:34:37;;;;;;;50.90;30.35;;;;;;;4.86;46.98;96064.13;5010838;28;20206;-68
2022/01/16 04:37:06;;;;;;;56.25;32.22;;;;;;;4.86;47.12;96071.91;5011098;28;20229;-68
2022/01/16 04:39:35;;;;;;;57.40;32.13;;;;;;;4.82;46.92;96052.50;5010347;28;20201;-66
2022/01/16 04:44:52;;;;;;;54.45;29.15;;;;;;;4.71;47.13;96053.03;5010007;28;20193;-66
2022/01/16 04:47:19;;;;;;;46.75;27.70;;;;;;;4.74;46.90;96068.25;5010707;28;20206;-67
2022/01/16 04:49:46;;;;;;;48.17;27.83;;;;;;;4.65;46.98;96064.19;5009668;28;20204;-67
2022/01/16 04:52:13;;;;;;;46.40;26.95;;;;;;;4.57;47.08;96064.34;5010667;28;20194;-67
2022/01/16 04:54:40;;;;;;;46.55;26.95;;;;;;;4.49;47.53;96054.09;5025212;28;20260;-67
2022/01/16 04:57:07;;;;;;;41.95;25.17;;;;;;;4.47;47.45;96045.69;5010664;28;20213;-68
2022/01/16 04:59:34;;;;;;;48.28;27.15;;;;;;;4.55;47.09;96048.16;5009945;28;20254;-68
2022/01/16 05:02:01;;;;;;;47.97;26.88;;;;;;;4.56;47.27;96048.97;5009957;28;20206;-67
2022/01/16 05:04:28;;;;;;;49.50;28.13;;;;;;;4.61;47.16;96068.16;5009985;28;20221;-67
2022/01/16 05:06:54;;;;;;;46.70;27.75;;;;;;;4.28;47.74;96061.94;5010137;28;20194;-66
2022/01/16 05:09:21;;;;;;;43.10;25.45;;;;;;;4.33;47.84;96044.00;5009486;28;20276;-67
2022/01/16 05:11:54;;;;;;;44.42;25.90;;;;;;;4.31;47.69;96040.78;5009507;28;20206;-66
2022/01/16 05:17:20;;;;;;;54.42;28.17;;;;;;;4.30;47.73;96022.81;4997892;28;20333;-66
2022/01/16 05:19:47;;;;;;;55.67;30.75;;;;;;;4.37;47.83;96039.25;5009005;28;20227;-68
2022/01/16 05:22:14;;;;;;;60.13;32.90;;;;;;;4.41;47.66;96036.09;4993898;28;20193;-68
2022/01/16 05:24:41;;;;;;;61.72;34.70;;;;;;;4.36;47.52;96048.81;5009729;28;20190;-67
2022/01/16 05:27:09;;;;;;;61.50;34.05;;;;;;;4.50;47.49;96055.72;5009412;28;20220;-67
2022/01/16 05:29:36;;;;;;;53.53;32.17;;;;;;;4.17;47.90;96033.91;5009743;28;20313;-67
2022/01/16 05:32:04;;;;;;;60.67;33.88;;;;;;;4.40;47.78;96052.63;5009043;28;20205;-68
2022/01/16 05:34:31;;;;;;;62.35;34.30;;;;;;;4.36;48.02;96059.19;5009432;28;20202;-67
2022/01/16 05:36:58;;;;;;;64.70;35.95;;;;;;;4.67;47.23;96062.19;5009151;28;20240;-66
2022/01/16 05:39:25;;;;;;;64.60;36.85;;;;;;;4.72;46.99;96057.25;5009373;28;20209;-67
2022/01/16 05:41:52;;;;;;;74.10;39.80;;;;;;;4.46;47.33;96049.28;5009378;28;20208;-65
2022/01/16 05:44:19;;;;;;;70.47;40.03;;;;;;;4.08;48.80;96055.78;5010060;28;20202;-66
2022/01/16 05:46:46;;;;;;;73.85;41.80;;;;;;;4.41;47.75;96041.28;5009860;28;20210;-67
2022/01/16 05:49:13;;;;;;;70.60;41.60;;;;;;;4.58;47.28;96073.72;5008989;28;20238;-67
2022/01/16 05:51:40;;;;;;;69.03;39.85;;;;;;;4.43;47.78;96073.03;5009413;28;20203;-67
2022/01/16 05:54:07;;;;;;;66.65;36.92;;;;;;;4.53;47.76;96065.69;5008615;28;20198;-67
2022/01/16 05:56:34;;;;;;;78.43;42.78;;;;;;;4.71;47.11;96063.44;5009973;28;20256;-66
2022/01/16 05:59:00;;;;;;;81.85;45.60;;;;;;;4.57;47.44;96071.31;5009650;28;20263;-66
2022/01/16 06:01:27;;;;;;;86.35;47.80;;;;;;;4.57;47.54;96082.50;5009231;28;20305;-66
2022/01/16 06:03:54;;;;;;;82.13;47.97;;;;;;;4.70;47.22;96077.41;5009208;28;20201;-66
2022/01/16 06:06:22;;;;;;;107.40;56.17;;;;;;;4.72;47.01;96075.44;5009038;28;20285;-67
2022/01/16 06:08:49;;;;;;;97.82;52.30;;;;;;;4.61;47.63;96073.34;5009017;28;20214;-68
2022/01/16 06:11:16;;;;;;;94.70;51.30;;;;;;;4.65;47.36;96064.19;5009138;28;20193;-68
2022/01/16 06:13:43;;;;;;;84.97;48.05;;;;;;;4.57;47.84;96046.16;5008513;28;20205;-68
2022/01/16 06:16:10;;;;;;;89.10;47.47;;;;;;;4.70;47.63;96080.00;5008390;28;20320;-67
2022/01/16 06:18:37;;;;;;;93.07;48.92;;;;;;;4.65;47.50;96074.56;5008611;28;20204;-67
2022/01/16 06:21:04;;;;;;;92.63;50.97;;;;;;;4.76;47.22;96081.81;5008718;28;20237;-67
2022/01/16 06:23:31;;;;;;;97.75;53.05;;;;;;;4.64;47.54;96077.34;5009052;28;20255;-67
2022/01/16 06:25:58;;;;;;;101.68;54.40;;;;;;;4.37;48.27;96081.56;5009110;28;20267;-67
2022/01/16 06:28:27;;;;;;;112.38;57.92;;;;;;;4.06;48.61;96088.88;5008546;28;20197;-67
2022/01/16 06:30:54;;;;;;;102.25;51.25;;;;;;;3.70;49.08;96057.84;5008935;28;20217;-67
2022/01/16 06:33:21;;;;;;;99.55;53.88;;;;;;;3.97;49.32;96092.59;5008293;28;20657;-68
2022/01/16 06:35:47;;;;;;;103.07;55.88;;;;;;;4.11;48.62;96112.47;5008429;28;20622;-67
2022/01/16 06:38:15;;;;;;;96.57;53.85;;;;;;;4.11;48.86;96107.28;5008338;28;20684;-68
2022/01/16 06:40:42;;;;;;;86.90;50.95;;;;;;;4.00;49.16;96110.34;5008447;28;20684;-68
2022/01/16 06:43:09;;;;;;;89.07;51.03;;;;;;;3.78;49.37;96111.31;5008099;28;20264;-67
2022/01/16 06:45:35;;;;;;;86.35;49.78;;;;;;;4.10;48.92;96118.66;5009076;28;20205;-68
2022/01/16 06:48:02;;;;;;;86.30;48.83;;;;;;;4.02;49.24;96109.19;5007986;28;20206;-67
2022/01/16 06:50:30;;;;;;;86.72;47.47;;;;;;;4.11;48.49;96102.09;5008337;28;20205;-68
2022/01/16 06:52:56;;;;;;;83.95;44.45;;;;;;;4.12;48.60;96108.91;5010715;28;20201;-67
2022/01/16 06:55:23;;;;;;;87.07;44.58;;;;;;;4.27;48.54;96109.59;5012759;28;20194;-67
2022/01/16 06:57:50;;;;;;;70.55;40.22;;;;;;;4.26;48.30;96123.59;5012486;28;20225;-67
2022/01/16 07:00:17;;;;;;;74.38;41.92;;;;;;;4.07;48.72;96112.03;5012481;28;20209;-66
2022/01/16 07:02:44;;;;;;;78.72;40.95;;;;;;;3.85;49.17;96112.22;5011450;28;20197;-68
2022/01/16 07:05:11;;;;;;;74.72;42.33;;;;;;;4.03;49.10;96118.56;5011664;28;20205;-68
2022/01/16 07:07:38;;;;;;;75.97;41.65;;;;;;;4.39;48.25;96121.09;5012322;28;20638;-67
2022/01/16 07:10:05;;;;;;;80.57;43.97;;;;;;;4.34;48.29;96128.66;5012071;28;20205;-68
2022/01/16 07:12:32;;;;;;;81.55;45.72;;;;;;;4.41;47.90;96139.06;5005482;28;20285;-69
2022/01/16 07:14:59;;;;;;;89.07;47.45;;;;;;;4.34;48.22;96133.84;5010253;28;20296;-68
2022/01/16 07:17:27;;;;;;;81.40;47.13;;;;;;;4.60;47.86;96131.44;5007589;28;20845;-69
2022/01/16 07:19:54;;;;;;;75.53;42.83;;;;;;;4.67;47.67;96145.28;5004791;28;20255;-71
2022/01/16 07:22:21;;;;;;;82.47;45.28;;;;;;;4.54;48.18;96140.00;5002556;28;20228;-67
2022/01/16 07:24:50;;;;;;;77.47;44.38;;;;;;;4.57;48.14;96144.81;5009173;28;20630;-69
2022/01/16 07:27:18;;;;;;;74.13;42.92;;;;;;;4.62;48.18;96126.88;5006987;28;20206;-70
2022/01/16 07:29:46;;;;;;;73.72;42.60;;;;;;;4.85;47.89;96142.22;5007287;28;20202;-70
2022/01/16 07:32:13;;;;;;;85.03;45.30;;;;;;;5.00;47.22;96135.09;5010364;28;20202;-69
2022/01/16 07:34:40;;;;;;;89.47;48.28;;;;;;;5.04;47.51;96137.16;5001163;28;20190;-69
2022/01/16 07:37:07;;;;;;;95.72;53.55;;;;;;;5.18;47.30;96138.81;5010286;28;20266;-69
2022/01/16 07:39:34;;;;;;;103.20;53.88;;;;;;;4.96;47.66;96145.06;5008477;28;20193;-68
2022/01/16 07:42:00;;;;;;;107.78;54.80;;;;;;;4.94;47.91;96147.09;5007070;28;20201;-67
2022/01/16 07:44:28;;;;;;;105.97;57.72;;;;;;;5.09;47.62;96150.38;5006972;28;20276;-67
2022/01/16 07:46:55;;;;;;;124.68;65.20;;;;;;;5.16;47.36;96145.22;5008511;28;20201;-69
2022/01/16 07:49:22;;;;;;;122.30;67.70;;;;;;;5.25;47.13;96151.06;5009268;28;20252;-69
2022/01/16 07:51:49;;;;;;;141.13;77.97;;;;;;;5.06;47.60;96149.94;5001024;28;20201;-70
2022/01/16 07:54:16;;;;;;;141.45;81.40;;;;;;;4.92;48.04;96156.06;5002790;28;20209;-67
2022/01/16 07:56:42;;;;;;;137.10;80.03;;;;;;;4.80;48.35;96150.56;5005839;28;20222;-68
2022/01/16 07:59:09;;;;;;;145.43;80.13;;;;;;;5.00;47.93;96167.09;5003240;28;20309;-68
2022/01/16 08:01:36;;;;;;;131.30;75.97;;;;;;;4.85;47.96;96161.19;5006655;28;20237;-69
2022/01/16 08:04:03;;;;;;;126.55;73.20;;;;;;;5.14;47.78;96171.41;5008090;28;20213;-69
2022/01/16 08:06:31;;;;;;;110.63;62.75;;;;;;;5.07;47.91;96167.94;5003973;28;20968;-70
2022/01/16 08:08:58;;;;;;;100.35;55.75;;;;;;;5.23;47.28;96151.25;5009662;28;21043;-75
2022/01/16 08:11:25;;;;;;;86.20;50.85;;;;;;;5.69;46.49;96167.06;5009423;28;20564;-75
2022/01/16 08:13:52;;;;;;;89.30;49.00;;;;;;;5.78;46.47;96152.91;5009313;28;20194;-74
2022/01/16 08:16:19;;;;;;;79.07;44.03;;;;;;;5.83;46.37;96132.34;5020617;28;20245;-73
2022/01/16 08:18:46;;;;;;;75.40;43.40;;;;;;;6.00;46.13;96134.38;5006545;28;20206;-75
2022/01/16 08:21:13;;;;;;;69.03;40.70;;;;;;;6.10;45.59;96154.81;5009310;28;20194;-75
2022/01/16 08:23:39;;;;;;;72.45;41.95;;;;;;;5.98;45.82;96156.41;5003755;28;20252;-75
2022/01/16 08:26:06;;;;;;;72.53;41.55;;;;;;;5.67;46.29;96150.88;5007165;28;20238;-75
2022/01/16 08:28:33;;;;;;;72.13;42.95;;;;;;;5.64;45.63;96130.47;5004756;28;20194;-74
2022/01/16 08:31:00;;;;;;;71.00;42.75;;;;;;;5.75;45.76;96135.06;5003726;28;20194;-77
2022/01/16 08:33:27;;;;;;;75.65;41.65;;;;;;;5.92;46.02;96159.78;5001327;28;20293;-74
2022/01/16 08:35:54;;;;;;;72.50;42.05;;;;;;;5.51;46.11;96156.41;5005013;28;20191;-77
2022/01/16 08:38:23;;;;;;;75.53;42.85;;;;;;;5.77;46.36;96133.09;5007672;28;20225;-77
2022/01/16 08:40:50;;;;;;;62.22;37.35;;;;;;;5.59;46.66;96127.63;5039059;28;20202;-75
2022/01/16 08:43:17;;;;;;;55.58;32.70;;;;;;;5.35;46.19;96133.31;5003563;28;20198;-76
2022/01/16 08:45:46;;;;;;;93.93;50.22;;;;;;;5.25;46.58;96135.47;5005267;28;20251;-78
2022/01/16 08:48:13;;;;;;;62.13;33.75;;;;;;;5.89;45.11;96126.38;5005008;28;20294;-77
2022/01/16 08:50:40;;;;;;;57.10;30.95;;;;;;;6.64;44.58;96137.25;5003066;28;20537;-66
2022/01/16 08:53:08;;;;;;;54.72;31.15;;;;;;;7.40;42.94;96129.75;5002298;28;20194;-74
2022/01/16 08:55:35;;;;;;;45.78;26.08;;;;;;;7.51;42.32;96122.09;5001448;28;20293;-74
2022/01/16 08:58:03;;;;;;;38.38;23.60;;;;;;;7.46;42.25;96115.88;5017000;28;20222;-76
2022/01/16 09:00:32;;;;;;;43.20;25.80;;;;;;;7.14;41.86;96122.78;5007752;28;20748;-77
2022/01/16 09:03:01;;;;;;;43.78;26.73;;;;;;;8.22;41.65;96107.06;5006309;28;20190;-76
2022/01/16 09:05:28;;;;;;;34.80;21.70;;;;;;;8.23;38.91;96118.31;5007079;28;20288;-68
2022/01/16 09:07:56;;;;;;;35.08;21.35;;;;;;;8.61;39.29;96117.25;4996360;28;20192;-72
2022/01/16 09:10:23;;;;;;;36.15;22.23;;;;;;;8.58;39.31;96112.47;4996420;28;20194;-67
2022/01/16 09:12:53;;;;;;;39.63;24.05;;;;;;;8.57;39.28;96105.66;4998113;28;20182;-70
2022/01/16 09:15:21;;;;;;;36.15;20.05;;;;;;;8.27;38.29;96109.88;4995490;28;20190;-67
2022/01/16 09:17:48;;;;;;;37.17;22.83;;;;;;;8.19;39.25;96107.50;4998245;28;20210;-65
2022/01/16 09:20:16;;;;;;;36.35;23.60;;;;;;;8.72;39.34;96103.50;4999021;28;20961;-68
2022/01/16 09:22:48;;;;;;;38.65;23.30;;;;;;;9.31;37.91;96102.13;5004211;28;20767;-67
2022/01/16 09:25:22;;;;;;;70.45;46.25;;;;;;;9.67;38.29;96094.28;4993147;28;20206;-71
2022/01/16 09:27:50;;;;;;;42.17;24.55;;;;;;;9.51;37.90;96087.00;4995045;28;20201;-68
2022/01/16 09:30:18;;;;;;;92.25;64.65;;;;;;;9.70;37.76;96080.75;4994689;28;20285;-73
2022/01/16 09:32:45;;;;;;;35.35;21.40;;;;;;;9.77;38.08;96084.06;4997176;28;20198;-69
2022/01/16 09:35:13;;;;;;;30.27;20.10;;;;;;;9.50;37.26;96080.19;4999249;28;20204;-69
2022/01/16 09:37:41;;;;;;;31.88;20.00;;;;;;;9.94;36.57;96077.19;5000809;28;20225;-69
2022/01/16 09:40:10;;;;;;;36.00;20.23;;;;;;;10.01;36.74;96067.44;4999996;28;20217;-68
2022/01/16 09:42:41;;;;;;;32.53;19.95;;;;;;;9.02;37.10;96067.84;4996212;28;20293;-73
2022/01/16 09:45:16;;;;;;;31.40;20.30;;;;;;;9.31;37.99;96081.19;4998772;28;20195;-69
2022/01/16 09:47:47;;;;;;;31.02;19.77;;;;;;;9.95;36.52;96057.84;4992706;28;20641;-68
2022/01/16 09:50:23;;;;;;;191.67;129.77;;;;;;;10.54;36.32;96063.03;5000493;28;20281;-72
2022/01/16 09:52:54;;;;;;;93.00;69.17;;;;;;;10.31;36.36;96047.25;5002385;28;20458;-69
2022/01/16 09:55:21;;;;;;;32.38;22.02;;;;;;;10.43;35.73;96049.91;4993199;28;20441;-67
2022/01/16 09:57:50;;;;;;;31.83;20.27;;;;;;;10.41;35.74;96047.50;5006959;28;20313;-69
2022/01/16 10:00:20;;;;;;;30.57;19.00;;;;;;;10.23;36.37;96039.75;4990342;28;20457;-72
2022/01/16 10:02:48;;;;;;;26.70;17.73;;;;;;;10.39;35.58;96044.31;4994689;28;20457;-69
2022/01/16 10:05:30;;;;;;;32.97;19.60;;;;;;;10.62;37.80;96039.09;4998507;28;20871;-68
2022/01/16 10:08:04;;;;;;;25.05;15.70;;;;;;;10.77;36.14;96026.34;4995173;28;20479;-69
2022/01/16 10:10:36;;;;;;;22.00;13.67;;;;;;;10.50;35.78;96029.63;4995171;28;20205;-69
2022/01/16 10:13:37;;;;;;;19.70;12.70;;;;;;;10.60;34.86;96030.66;4998308;28;20521;-68
2022/01/16 10:16:04;;;;;;;17.37;12.43;;;;;;;10.80;34.59;96020.63;5002125;28;20472;-64
2022/01/16 10:18:44;;;;;;;18.13;13.07;;;;;;;10.64;35.47;96015.25;5005099;28;20484;-67
2022/01/16 10:21:31;;;;;;;47.80;34.43;;;;;;;10.53;36.03;96019.47;4990470;28;21354;-68
2022/01/16 10:23:58;;;;;;;21.90;15.90;;;;;;;10.30;35.73;96029.16;4994254;28;20452;-63
2022/01/16 10:26:25;;;;;;;30.67;19.80;;;;;;;10.12;36.06;96027.41;4995076;28;20504;-69
2022/01/16 10:28:55;;;;;;;20.13;13.03;;;;;;;10.66;35.52;96013.22;4995948;28;21036;-68
2022/01/16 10:31:25;;;;;;;18.75;13.35;;;;;;;10.64;35.20;96005.59;4990850;28;20448;-69
2022/01/16 10:33:55;;;;;;;20.53;14.37;;;;;;;10.40;36.41;96009.22;4997158;28;20193;-67
2022/01/16 10:36:37;;;;;;;17.07;12.63;;;;;;;10.56;35.95;96008.56;4997546;28;20449;-67
2022/01/16 10:39:13;;;;;;;119.10;78.07;;;;;;;10.43;35.83;96003.53;4992759;28;20438;-70
2022/01/16 10:41:41;;;;;;;23.13;14.53;;;;;;;10.60;34.78;95975.59;4999141;28;20456;-69
2022/01/16 10:44:27;;;;;;;21.50;13.40;;;;;;;10.55;34.49;95986.00;4997727;28;20446;-70
2022/01/16 10:46:54;;;;;;;20.73;13.60;;;;;;;9.60;35.46;95996.75;5001200;28;20439;-70
2022/01/16 10:49:21;;;;;;;22.93;15.37;;;;;;;9.05;36.67;95981.13;5003042;28;20982;-68
2022/01/16 10:52:07;;;;;;;26.50;15.90;;;;;;;8.98;37.02;95995.28;5007049;28;20437;-68
2022/01/16 10:54:35;;;;;;;24.40;15.82;;;;;;;9.41;37.13;95988.13;4995703;28;20268;-66
2022/01/16 10:57:26;;;;;;;28.33;18.30;;;;;;;9.76;36.10;95980.41;5001543;28;20232;-70
2022/01/16 11:00:10;;;;;;;23.38;15.93;;;;;;;9.57;37.00;95960.53;4997860;28;20202;-70
2022/01/16 11:02:39;;;;;;;26.98;16.10;;;;;;;9.60;38.25;95962.72;4992057;28;21059;-71
2022/01/16 11:05:09;;;;;;;27.75;17.63;;;;;;;9.98;38.94;95963.16;4993772;28;20206;-70
2022/01/16 11:07:36;;;;;;;25.90;16.33;;;;;;;10.16;36.41;95970.94;5006661;28;20204;-71
2022/01/16 11:10:21;;;;;;;96.00;59.00;;;;;;;10.67;36.34;95971.06;5003892;28;20213;-68
2022/01/16 11:12:52;;;;;;;103.50;59.10;;;;;;;10.82;35.81;95968.75;5004628;28;20456;-71
2022/01/16 11:15:19;;;;;;;23.47;15.23;;;;;;;10.77;35.11;95952.94;5000664;28;20887;-74
2022/01/16 11:17:46;;;;;;;24.90;15.73;;;;;;;10.82;34.98;95949.63;5001466;28;21214;-70
2022/01/16 11:20:15;;;;;;;24.03;17.10;;;;;;;10.74;35.07;95961.25;5004731;28;20445;-67
2022/01/16 11:25:31;;;;;;;24.63;15.93;;;;;;;10.54;34.48;95932.00;5002376;28;20445;-67
2022/01/16 11:28:04;;;;;;;24.07;16.00;;;;;;;10.42;35.58;95954.75;5003372;28;20544;-65
2022/01/16 11:30:32;;;;;;;22.40;15.40;;;;;;;9.74;36.28;95951.03;5008358;28;21859;-68
2022/01/16 11:33:00;;;;;;;22.40;16.33;;;;;;;10.60;36.27;95941.53;5007730;28;20448;-67
2022/01/16 11:35:28;;;;;;;25.13;15.73;;;;;;;10.65;35.37;95944.28;5008044;28;20493;-67
2022/01/16 11:37:56;;;;;;;22.47;16.47;;;;;;;10.71;34.94;95939.94;5008511;28;21096;-66
2022/01/16 11:40:35;;;;;;;22.53;15.93;;;;;;;10.87;35.05;95937.41;5026487;28;20508;-71
2022/01/16 11:43:11;;;;;;;23.67;16.07;;;;;;;10.43;37.63;95924.13;5010983;28;20456;-72
2022/01/16 11:46:04;;;;;;;21.87;15.43;;;;;;;10.34;35.96;95923.69;5011967;28;20444;-71
2022/01/16 11:48:36;;;;;;;24.33;16.47;;;;;;;9.96;35.85;95923.31;5011421;28;20470;-71
2022/01/16 11:51:32;;;;;;;25.73;16.80;;;;;;;10.66;36.38;95919.66;5006216;28;20456;-73
2022/01/16 11:54:02;;;;;;;38.00;25.43;;;;;;;11.13;34.55;95905.38;5000769;28;20293;-69
2022/01/16 11:56:41;;;;;;;40.00;23.83;;;;;;;11.64;34.55;95932.56;5004443;28;20453;-71
2022/01/16 11:59:28;;;;;;;23.83;17.13;;;;;;;11.10;33.36;95919.00;5011310;28;20492;-70
2022/01/16 12:02:17;;;;;;;25.87;16.23;;;;;;;11.53;33.23;95909.78;5010434;28;20531;-71
2022/01/16 12:04:50;;;;;;;25.67;17.87;;;;;;;12.41;31.64;95908.06;5009771;28;20480;-73
2022/01/16 12:07:19;;;;;;;25.97;16.83;;;;;;;13.78;30.23;95895.44;5011341;28;20449;-70
2022/01/16 12:09:50;;;;;;;24.17;16.00;;;;;;;14.20;30.07;95902.38;5010862;28;20449;-68
2022/01/16 12:12:19;;;;;;;25.57;16.50;;;;;;;14.58;29.21;95871.53;5009816;28;20449;-71
2022/01/16 12:14:50;;;;;;;23.33;16.17;;;;;;;16.58;26.26;95875.53;5009638;28;20444;-71
2022/01/16 12:17:43;;;;;;;29.73;17.63;;;;;;;16.40;27.47;95879.53;4998048;28;20503;-69
2022/01/16 12:20:17;;;;;;;25.17;17.00;;;;;;;17.75;24.91;95880.03;5011280;28;20441;-69
2022/01/16 12:23:03;;;;;;;24.53;17.17;;;;;;;17.54;24.67;95871.41;5010119;28;20440;-70